ADDS TAF Data INFO
IDs: Format: Raw Decoded Include METARs

Data at: 0432 UTC 22 Apr 2018

KPVW 220415Z AUTO 03006KT 10SM CLR 07/05 A3017 RMK AO2 T00660047

KPVW 212341Z 2200/2224 36011KT P6SM SCT030 BKN045
  FM220100 01010KT P6SM FEW045